Time;durP1;ratioP1;P1;durP2;ratioP2;P2;SDS_P1;SDS_P2;PMS_P1;PMS_P2;Temp;Humidity;BMP_temperature;BMP_pressure;BME280_temperature;BME280_humidity;BME280_pressure;Samples;Min_cycle;Max_cycle;Signal;HPM_P1;HPM_P2
2023/06/25 00:01:49;;;;;;;2.00;2.00;;;;;;;20.35;90.45;96848.53;4947239;28;20507;-61
2023/06/25 00:04:16;;;;;;;2.30;2.30;;;;;;;19.47;90.23;96713.63;4947692;28;20058;-61
2023/06/25 00:06:42;;;;;;;2.50;2.40;;;;;;;19.66;90.48;96750.56;4947686;29;20066;-61
2023/06/25 00:09:09;;;;;;;2.60;2.50;;;;;;;20.36;89.96;96861.41;4948154;29;20460;-61
2023/06/25 00:11:36;;;;;;;2.30;2.30;;;;;;;19.81;89.84;96771.47;4946274;29;20058;-62
2023/06/25 00:14:03;;;;;;;1.90;1.90;;;;;;;20.26;90.13;96851.19;4945841;29;20138;-61
2023/06/25 00:16:30;;;;;;;2.17;2.17;;;;;;;20.22;88.73;96850.47;4945807;29;20047;-60
2023/06/25 00:18:57;;;;;;;2.25;2.25;;;;;;;20.11;89.01;96833.00;4947547;28;20050;-60
2023/06/25 00:21:23;;;;;;;2.00;2.00;;;;;;;20.24;88.50;96848.00;4947309;29;20051;-60
2023/06/25 00:23:50;;;;;;;2.42;2.33;;;;;;;20.21;88.13;96855.31;4946976;28;20483;-61
2023/06/25 00:26:17;;;;;;;2.10;2.10;;;;;;;20.17;88.13;96853.81;4946929;29;20059;-62
2023/06/25 00:28:44;;;;;;;2.28;2.28;;;;;;;20.12;88.33;96857.13;4961657;28;20059;-61
2023/06/25 00:31:14;;;;;;;2.25;2.25;;;;;;;20.10;88.27;96854.75;4962559;28;20058;-61
2023/06/25 00:33:44;;;;;;;1.90;1.90;;;;;;;20.06;88.26;96867.31;4966201;28;20250;-60
2023/06/25 00:36:11;;;;;;;2.17;2.17;;;;;;;19.91;90.68;96852.78;4965814;28;20050;-63
2023/06/25 00:38:39;;;;;;;2.25;2.25;;;;;;;19.29;93.66;96794.72;4966940;28;20061;-61
2023/06/25 00:41:08;;;;;;;2.13;2.13;;;;;;;19.09;95.39;96773.44;4966245;28;20128;-60
2023/06/25 00:43:41;;;;;;;2.10;2.10;;;;;;;19.58;96.24;96855.91;4966121;28;20053;-60
2023/06/25 00:46:12;;;;;;;;;;;;;;;19.58;97.46;96857.50;4966570;28;20449;-63
2023/06/25 00:48:45;;;;;;;1.88;1.88;;;;;;;19.40;98.87;96859.09;4966163;28;19926;-60
2023/06/25 00:51:17;;;;;;;2.05;2.05;;;;;;;19.44;99.44;96857.78;4965638;28;20051;-61
2023/06/25 00:53:45;;;;;;;2.13;2.13;;;;;;;19.50;99.34;96866.53;4966128;28;20098;-63
2023/06/25 00:56:12;;;;;;;2.00;2.00;;;;;;;19.31;98.84;96834.41;4966232;28;20051;-60
2023/06/25 00:58:40;;;;;;;1.98;1.98;;;;;;;19.33;96.50;96817.91;4966008;28;20051;-61
2023/06/25 01:01:15;;;;;;;2.00;2.00;;;;;;;19.62;95.16;96868.66;4979746;28;20050;-60
2023/06/25 01:03:54;;;;;;;2.10;2.10;;;;;;;19.64;93.94;96849.34;4965713;28;20053;-60
2023/06/25 01:06:29;;;;;;;1.98;1.98;;;;;;;19.67;92.59;96854.09;4965365;28;20446;-61
2023/06/25 01:08:59;;;;;;;1.90;1.90;;;;;;;19.30;90.75;96813.16;4964072;28;20175;-60
2023/06/25 01:11:28;;;;;;;2.28;2.28;;;;;;;19.33;90.52;96826.31;4965811;28;20057;-60
2023/06/25 01:13:55;;;;;;;2.22;2.22;;;;;;;19.52;90.04;96850.81;4965417;28;20056;-60
2023/06/25 01:16:22;;;;;;;1.90;1.90;;;;;;;19.58;90.12;96844.69;4963996;28;20082;-60
2023/06/25 01:18:50;;;;;;;2.13;2.13;;;;;;;19.55;89.86;96847.13;4965549;28;20512;-60
2023/06/25 01:21:30;;;;;;;2.30;2.30;;;;;;;17.03;88.83;96437.00;4965612;28;20141;-61
2023/06/25 01:23:58;;;;;;;1.95;1.95;;;;;;;19.57;89.65;96857.16;4964081;28;20145;-61
2023/06/25 01:26:24;;;;;;;2.00;2.00;;;;;;;19.22;89.36;96800.44;4965329;28;20054;-62
2023/06/25 01:28:55;;;;;;;2.05;2.05;;;;;;;19.42;89.66;96831.38;4965483;28;20158;-60
2023/06/25 01:31:24;;;;;;;2.00;2.00;;;;;;;19.37;88.45;96834.69;4965023;28;20058;-62
2023/06/25 01:33:51;;;;;;;2.10;2.10;;;;;;;19.41;87.54;96841.03;4965733;28;20081;-61
2023/06/25 01:36:18;;;;;;;2.20;2.20;;;;;;;19.33;86.50;96834.75;4965382;28;20442;-60
2023/06/25 01:38:44;;;;;;;2.00;2.00;;;;;;;19.29;86.63;96834.03;4964442;28;20050;-59
2023/06/25 01:41:11;;;;;;;2.17;2.17;;;;;;;18.97;87.27;96777.69;4965325;28;20062;-60
2023/06/25 01:43:38;;;;;;;2.00;2.00;;;;;;;19.11;87.51;96833.56;4963786;28;20057;-61
2023/06/25 01:46:05;;;;;;;2.10;2.10;;;;;;;19.03;88.38;96831.34;4965193;28;20057;-60
2023/06/25 01:48:33;;;;;;;2.00;2.00;;;;;;;18.97;88.32;96828.22;4964999;28;20502;-59
2023/06/25 01:51:00;;;;;;;2.05;2.05;;;;;;;18.13;87.67;96695.13;4964990;28;20137;-60
2023/06/25 01:53:26;;;;;;;2.15;2.15;;;;;;;19.01;87.65;96828.97;4963685;28;20101;-61
2023/06/25 01:55:53;;;;;;;2.13;2.13;;;;;;;18.94;87.21;96840.31;4964600;28;20066;-60
2023/06/25 01:58:19;;;;;;;1.80;1.80;;;;;;;18.86;86.90;96822.03;4964962;28;20054;-60
2023/06/25 02:00:47;;;;;;;2.00;2.00;;;;;;;19.03;87.14;96822.91;4965083;28;20055;-59
2023/06/25 02:03:14;;;;;;;1.90;1.90;;;;;;;18.92;87.48;96817.50;4963765;28;20046;-60
2023/06/25 02:05:42;;;;;;;1.92;1.92;;;;;;;18.93;87.56;96821.91;4964960;28;20105;-60
2023/06/25 02:08:08;;;;;;;2.00;2.00;;;;;;;18.88;87.93;96825.19;4965180;28;20061;-60
2023/06/25 02:10:35;;;;;;;1.75;1.75;;;;;;;18.90;87.72;96821.97;4964868;28;20050;-60
2023/06/25 02:13:02;;;;;;;2.30;2.30;;;;;;;18.92;87.19;96825.91;4965180;28;20542;-60
2023/06/25 02:15:29;;;;;;;2.00;2.00;;;;;;;18.96;86.81;96826.66;4965218;28;20062;-60
2023/06/25 02:17:56;;;;;;;2.03;2.03;;;;;;;18.55;86.87;96772.91;4965314;28;20050;-60
2023/06/25 02:20:23;;;;;;;2.00;2.00;;;;;;;18.98;85.54;96834.63;4965299;28;20407;-60
2023/06/25 02:22:50;;;;;;;2.13;2.13;;;;;;;18.49;85.57;96801.88;4964872;28;20133;-60
2023/06/25 02:25:16;;;;;;;1.95;1.95;;;;;;;18.75;86.27;96832.66;4963300;28;20541;-60
2023/06/25 02:27:43;;;;;;;1.92;1.92;;;;;;;18.66;86.56;96835.22;4967098;28;20517;-60
2023/06/25 02:30:10;;;;;;;1.90;1.90;;;;;;;18.53;86.75;96820.22;4969131;28;20541;-60
2023/06/25 02:32:37;;;;;;;1.83;1.83;;;;;;;18.69;86.31;96823.16;4968636;28;20062;-61
2023/06/25 02:35:05;;;;;;;1.95;1.95;;;;;;;18.67;86.00;96834.00;4968932;28;20561;-60
2023/06/25 02:37:31;;;;;;;2.17;2.17;;;;;;;18.59;86.07;96829.75;4968434;28;20051;-60
2023/06/25 02:39:58;;;;;;;1.95;1.95;;;;;;;18.62;86.68;96823.25;4961958;28;20521;-59
2023/06/25 02:42:24;;;;;;;2.20;2.20;;;;;;;18.66;87.07;96821.19;4963652;28;20055;-60
2023/06/25 02:44:51;;;;;;;1.90;1.90;;;;;;;18.64;86.97;96818.03;4963258;28;20063;-60
2023/06/25 02:47:18;;;;;;;2.03;2.03;;;;;;;18.66;87.26;96829.63;4948901;28;20061;-60
2023/06/25 02:49:44;;;;;;;2.17;2.17;;;;;;;18.65;86.68;96811.19;4948932;29;20066;-60
2023/06/25 02:52:11;;;;;;;1.80;1.80;;;;;;;18.48;86.86;96817.91;4948720;28;20051;-60
2023/06/25 02:54:38;;;;;;;1.90;1.90;;;;;;;18.44;87.91;96817.19;4948821;28;20502;-59
2023/06/25 02:57:04;;;;;;;1.80;1.80;;;;;;;18.54;87.75;96810.59;4948640;29;20050;-60
2023/06/25 02:59:31;;;;;;;1.70;1.70;;;;;;;18.02;87.35;96733.75;4963378;28;20522;-60
2023/06/25 03:01:58;;;;;;;1.88;1.88;;;;;;;18.56;87.33;96813.75;4947010;29;20050;-61
2023/06/25 03:04:24;;;;;;;1.92;1.92;;;;;;;18.66;86.33;96826.81;4949302;29;20088;-61
2023/06/25 03:06:51;;;;;;;1.90;1.90;;;;;;;17.63;89.81;96800.84;4948565;28;20074;-61
2023/06/25 03:09:18;;;;;;;1.60;1.60;;;;;;;17.45;95.16;96861.91;4948456;28;20466;-60
2023/06/25 03:11:45;;;;;;;1.65;1.65;;;;;;;17.80;93.55;96851.00;4947155;29;20078;-60
2023/06/25 03:14:11;;;;;;;1.80;1.80;;;;;;;17.66;94.33;96842.00;4948812;28;20051;-59
2023/06/25 03:16:55;;;;;;;1.77;1.77;;;;;;;18.08;92.90;96849.81;4948197;29;20502;-60
2023/06/25 03:19:22;;;;;;;1.70;1.70;;;;;;;18.30;92.32;96879.09;4948466;28;20065;-60
2023/06/25 03:21:48;;;;;;;1.70;1.70;;;;;;;18.29;91.19;96866.28;4948208;29;20051;-60
2023/06/25 03:24:15;;;;;;;2.00;2.00;;;;;;;18.04;90.58;96795.78;4948550;28;20055;-63
2023/06/25 03:26:42;;;;;;;1.90;1.90;;;;;;;18.34;90.14;96857.38;4948578;28;20055;-61
2023/06/25 03:29:09;;;;;;;2.00;2.00;;;;;;;18.44;90.33;96853.66;4948382;29;20062;-60
2023/06/25 03:31:35;;;;;;;1.90;1.90;;;;;;;18.47;90.12;96850.00;4963392;28;20062;-61
2023/06/25 03:34:02;;;;;;;1.83;1.83;;;;;;;18.23;91.59;96825.13;4967919;28;20058;-61
2023/06/25 03:36:29;;;;;;;1.92;1.92;;;;;;;18.45;91.44;96846.00;4967385;28;20061;-62
2023/06/25 03:38:56;;;;;;;1.83;1.83;;;;;;;18.51;91.14;96839.50;4966996;28;20062;-60
2023/06/25 03:41:24;;;;;;;2.00;2.00;;;;;;;18.67;90.68;96842.41;4967146;28;20504;-60
2023/06/25 03:43:51;;;;;;;1.88;1.88;;;;;;;18.21;89.22;96738.63;4967132;28;20089;-61
2023/06/25 03:46:18;;;;;;;1.90;1.90;;;;;;;18.79;89.27;96827.78;4967132;28;20050;-60
2023/06/25 03:48:44;;;;;;;1.90;1.90;;;;;;;18.65;88.68;96805.56;4966704;28;20058;-60
2023/06/25 03:51:11;;;;;;;2.10;2.10;;;;;;;19.08;89.23;96850.47;4966701;28;20058;-61
2023/06/25 03:53:38;;;;;;;1.90;1.90;;;;;;;18.84;90.28;96807.63;4966928;28;20046;-61
2023/06/25 03:56:05;;;;;;;1.80;1.80;;;;;;;19.21;90.11;96800.88;4967189;28;20113;-61
2023/06/25 03:58:36;;;;;;;2.00;2.00;;;;;;;19.66;88.90;96801.16;4965403;28;20051;-61
2023/06/25 04:01:03;;;;;;;2.00;2.00;;;;;;;19.96;87.79;96859.91;4966864;28;20058;-61
2023/06/25 04:03:29;;;;;;;2.30;2.30;;;;;;;20.30;86.70;96857.50;4966775;28;20070;-61
2023/06/25 04:05:56;;;;;;;2.33;2.33;;;;;;;20.27;86.28;96850.75;4966636;28;20055;-60
2023/06/25 04:08:23;;;;;;;2.28;2.28;;;;;;;20.16;84.94;96795.97;4965099;28;20055;-60
2023/06/25 04:10:49;;;;;;;2.20;2.20;;;;;;;20.49;84.67;96848.19;4966704;28;20062;-61
2023/06/25 04:13:19;;;;;;;2.22;2.22;;;;;;;20.57;83.94;96849.59;4966218;28;20503;-60
2023/06/25 04:15:46;;;;;;;2.35;2.30;;;;;;;20.63;83.30;96843.00;4965287;28;20054;-60
2023/06/25 04:18:12;;;;;;;2.03;2.03;;;;;;;20.84;82.21;96861.38;4966386;28;20050;-61
2023/06/25 04:20:39;;;;;;;2.20;2.20;;;;;;;21.08;82.08;96845.88;4966628;28;20062;-62
2023/06/25 04:23:06;;;;;;;2.00;2.00;;;;;;;21.05;83.61;96846.75;4966880;28;20058;-60
2023/06/25 04:25:33;;;;;;;2.47;2.38;;;;;;;20.72;85.51;96873.34;4966339;28;20059;-61
2023/06/25 04:28:00;;;;;;;2.20;2.20;;;;;;;20.92;83.67;96848.69;4966381;28;20122;-60
2023/06/25 04:30:26;;;;;;;2.67;2.58;;;;;;;20.88;83.06;96859.25;4966585;28;20079;-59
2023/06/25 04:32:54;;;;;;;2.17;2.17;;;;;;;20.98;81.75;96851.81;4964596;28;20521;-60
2023/06/25 04:35:21;;;;;;;2.20;2.20;;;;;;;20.89;82.12;96850.38;4966610;28;20054;-60
2023/06/25 04:37:48;;;;;;;2.45;2.38;;;;;;;21.19;80.39;96863.28;4964542;28;20438;-60
2023/06/25 04:40:14;;;;;;;2.50;2.40;;;;;;;21.43;79.51;96864.59;4966480;28;20432;-61
2023/06/25 04:42:41;;;;;;;2.35;2.33;;;;;;;21.39;80.28;96826.47;4964482;28;20145;-60
2023/06/25 04:45:08;;;;;;;2.40;2.30;;;;;;;21.66;78.49;96858.69;4964634;28;20166;-62
2023/06/25 04:47:35;;;;;;;2.35;2.35;;;;;;;21.35;77.50;96773.06;4966422;28;20051;-61
2023/06/25 04:50:02;;;;;;;2.72;2.63;;;;;;;22.04;76.85;96868.03;4965491;28;20065;-61
2023/06/25 04:52:29;;;;;;;2.50;2.40;;;;;;;22.18;75.71;96856.31;4965796;28;20063;-61
2023/06/25 04:54:55;;;;;;;2.22;2.22;;;;;;;22.45;75.09;96851.00;4966088;28;20051;-61
2023/06/25 04:57:22;;;;;;;2.17;2.17;;;;;;;22.61;73.83;96860.59;4965443;28;20047;-61
2023/06/25 04:59:49;;;;;;;2.47;2.38;;;;;;;22.68;73.90;96854.72;4965965;28;20050;-61
2023/06/25 05:02:16;;;;;;;2.60;2.50;;;;;;;22.79;73.75;96855.16;4964042;28;20050;-62
2023/06/25 05:04:43;;;;;;;2.60;2.50;;;;;;;22.85;74.57;96848.47;4965629;28;20047;-61
2023/06/25 05:07:12;;;;;;;2.50;2.40;;;;;;;21.13;78.23;96614.34;4964130;28;20142;-62
2023/06/25 05:09:39;;;;;;;2.60;2.50;;;;;;;22.93;77.23;96843.38;4963954;28;20671;-60
2023/06/25 05:12:06;;;;;;;2.83;2.72;;;;;;;23.21;76.51;96843.16;4965578;28;20047;-60
2023/06/25 05:14:33;;;;;;;2.70;2.60;;;;;;;23.43;76.16;96843.19;4965987;28;20046;-60
2023/06/25 05:17:00;;;;;;;2.90;2.80;;;;;;;23.35;77.70;96841.88;4965442;28;20057;-60
2023/06/25 05:19:26;;;;;;;2.60;2.50;;;;;;;23.53;77.14;96839.19;4964230;28;20054;-59
2023/06/25 05:21:53;;;;;;;2.70;2.60;;;;;;;23.05;79.05;96809.41;4965146;28;20518;-60
2023/06/25 05:24:20;;;;;;;2.60;2.50;;;;;;;23.15;78.12;96793.31;4965486;28;20051;-61
2023/06/25 05:26:47;;;;;;;2.70;2.60;;;;;;;23.48;77.62;96817.16;4965316;28;20345;-61
2023/06/25 05:29:14;;;;;;;2.50;2.40;;;;;;;23.49;77.39;96835.72;4965673;28;20070;-60
2023/06/25 05:31:40;;;;;;;2.92;2.83;;;;;;;22.99;78.78;96773.72;4963455;28;20047;-61
2023/06/25 05:34:07;;;;;;;2.90;2.80;;;;;;;23.68;75.96;96843.06;4965506;28;20050;-61
2023/06/25 05:36:34;;;;;;;2.97;2.88;;;;;;;22.94;75.85;96732.72;4965104;28;20530;-60
2023/06/25 05:39:00;;;;;;;2.90;2.80;;;;;;;23.95;75.35;96829.09;4964977;28;20502;-61
2023/06/25 05:41:27;;;;;;;3.25;3.15;;;;;;;24.33;74.71;96829.59;4954747;28;20047;-61
2023/06/25 05:43:54;;;;;;;2.75;2.65;;;;;;;24.38;74.60;96828.19;4945742;29;20051;-60
2023/06/25 05:46:21;;;;;;;2.83;2.72;;;;;;;24.33;73.21;96826.78;4960552;28;20055;-61
2023/06/25 05:48:48;;;;;;;3.05;2.95;;;;;;;24.43;70.49;96814.25;4946316;29;20333;-61
2023/06/25 05:51:15;;;;;;;2.97;2.88;;;;;;;24.63;71.01;96831.59;4945925;29;20121;-60
2023/06/25 05:53:43;;;;;;;2.88;2.78;;;;;;;24.71;70.19;96827.25;4945988;29;20492;-60
2023/06/25 05:56:10;;;;;;;3.15;3.05;;;;;;;24.55;69.49;96782.16;4945955;29;20491;-61
2023/06/25 05:58:40;;;;;;;3.30;3.20;;;;;;;24.94;67.91;96832.31;4944602;29;20453;-62
2023/06/25 06:01:06;;;;;;;3.40;3.30;;;;;;;25.13;66.71;96828.25;4962001;28;20059;-62
2023/06/25 06:03:33;;;;;;;3.58;3.47;;;;;;;25.38;66.33;96832.06;4948212;29;20483;-62
2023/06/25 06:06:00;;;;;;;3.47;3.38;;;;;;;25.19;66.18;96786.69;4949757;29;20134;-61
2023/06/25 06:08:27;;;;;;;3.33;3.22;;;;;;;25.34;64.98;96814.44;4963974;28;20434;-61
2023/06/25 06:10:54;;;;;;;3.28;3.17;;;;;;;25.43;64.97;96835.06;4949133;28;20463;-61
2023/06/25 06:13:21;;;;;;;3.38;3.28;;;;;;;25.29;65.64;96825.09;4948519;29;20059;-61
2023/06/25 06:15:47;;;;;;;3.67;3.58;;;;;;;25.47;67.21;96835.69;4947658;28;20530;-60
2023/06/25 06:18:14;;;;;;;3.67;3.58;;;;;;;25.89;65.21;96838.63;4771408;28;5001614;-63
2023/06/25 06:20:41;;;;;;;3.40;3.30;;;;;;;25.44;66.88;96824.50;4987973;28;20050;-60
2023/06/25 06:23:07;;;;;;;3.40;3.30;;;;;;;25.58;65.62;96772.78;4987518;28;20054;-62
2023/06/25 06:25:34;;;;;;;3.22;3.13;;;;;;;26.40;63.88;96822.38;4987924;28;20057;-61
2023/06/25 06:28:02;;;;;;;3.70;3.60;;;;;;;26.38;62.54;96785.16;4987795;28;20055;-61
2023/06/25 06:30:29;;;;;;;4.00;3.90;;;;;;;26.83;61.22;96813.34;4989543;28;20169;-61
2023/06/25 06:32:55;;;;;;;3.85;3.75;;;;;;;26.86;60.69;96815.22;5007265;28;20058;-61
2023/06/25 06:35:22;;;;;;;4.07;3.97;;;;;;;27.24;60.20;96812.41;5006879;28;20054;-61
2023/06/25 06:37:49;;;;;;;4.15;4.05;;;;;;;27.54;58.60;96810.44;5006271;28;20556;-60
2023/06/25 06:40:15;;;;;;;3.50;3.40;;;;;;;27.19;59.30;96803.78;5006674;28;20212;-60
2023/06/25 06:42:42;;;;;;;3.95;3.85;;;;;;;27.54;58.32;96802.69;5007184;28;20053;-60
2023/06/25 06:45:09;;;;;;;3.97;3.88;;;;;;;27.12;58.69;96735.88;5006991;28;20050;-61
2023/06/25 06:47:37;;;;;;;3.90;3.80;;;;;;;27.22;57.46;96746.69;5006546;28;20060;-61
2023/06/25 06:50:04;;;;;;;3.80;3.70;;;;;;;26.86;60.58;96801.00;5007319;28;20060;-61
2023/06/25 06:52:31;;;;;;;4.22;4.13;;;;;;;27.26;57.65;96792.84;5007218;28;20054;-63
2023/06/25 06:54:57;;;;;;;3.80;3.70;;;;;;;27.43;57.41;96756.97;5005560;28;20294;-60
2023/06/25 06:57:24;;;;;;;4.00;3.90;;;;;;;27.03;60.21;96793.59;5021791;28;20057;-61
2023/06/25 06:59:51;;;;;;;3.92;3.83;;;;;;;27.11;59.41;96789.13;4991442;28;20571;-60
2023/06/25 07:02:18;;;;;;;3.67;3.58;;;;;;;27.28;58.41;96744.78;5005299;28;20050;-61
2023/06/25 07:04:45;;;;;;;4.03;3.92;;;;;;;26.86;59.94;96786.78;5007561;28;20077;-60
2023/06/25 07:07:12;;;;;;;3.85;3.75;;;;;;;27.33;57.88;96777.47;5006750;28;20056;-61
2023/06/25 07:09:49;;;;;;;3.70;3.60;;;;;;;27.13;58.44;96704.09;5007138;28;20077;-61
2023/06/25 07:12:17;;;;;;;4.00;3.90;;;;;;;27.47;56.91;96759.63;5004184;28;20054;-61
2023/06/25 07:14:44;;;;;;;4.43;4.32;;;;;;;27.41;55.29;96776.56;5006130;28;20058;-60
2023/06/25 07:17:10;;;;;;;4.03;3.92;;;;;;;27.64;56.54;96772.88;5006481;28;20128;-60
2023/06/25 07:19:37;;;;;;;4.18;4.07;;;;;;;27.30;57.97;96775.59;5006533;28;20088;-61
2023/06/25 07:22:04;;;;;;;3.92;3.83;;;;;;;27.33;58.20;96769.69;5021093;28;20081;-61
2023/06/25 07:24:31;;;;;;;4.10;4.00;;;;;;;27.63;58.00;96777.00;5006717;28;20565;-62
2023/06/25 07:26:57;;;;;;;4.18;4.07;;;;;;;27.11;56.20;96745.69;5021048;28;20046;-62
2023/06/25 07:29:24;;;;;;;3.78;3.67;;;;;;;27.44;56.80;96775.59;5006223;28;20061;-61
2023/06/25 07:31:51;;;;;;;3.83;3.72;;;;;;;27.23;57.20;96776.72;5006613;28;20072;-60
2023/06/25 07:34:18;;;;;;;4.10;4.00;;;;;;;27.63;55.99;96745.69;5006568;28;20049;-60
2023/06/25 07:36:44;;;;;;;4.13;4.03;;;;;;;27.45;57.27;96771.50;5005722;28;20508;-61
2023/06/25 07:39:22;;;;;;;3.90;3.80;;;;;;;27.64;56.12;96767.19;5006720;28;20057;-61
2023/06/25 07:41:49;;;;;;;4.10;4.00;;;;;;;28.04;56.05;96764.53;5006041;28;20050;-61
2023/06/25 07:44:16;;;;;;;4.18;4.07;;;;;;;27.93;54.95;96727.34;5004428;28;20528;-60
2023/06/25 07:47:03;;;;;;;3.97;3.88;;;;;;;28.34;54.26;96767.34;5005899;28;20081;-60
2023/06/25 07:49:30;;;;;;;4.13;4.03;;;;;;;28.40;53.88;96762.53;5006294;28;20089;-60
2023/06/25 07:51:57;;;;;;;4.35;4.25;;;;;;;28.23;53.78;96707.34;5005871;28;20249;-61
2023/06/25 07:54:24;;;;;;;4.30;4.20;;;;;;;28.21;52.60;96695.66;5006388;28;20053;-60
2023/06/25 07:56:50;;;;;;;4.40;4.30;;;;;;;27.42;55.31;96667.19;5004523;28;20414;-60
2023/06/25 07:59:17;;;;;;;4.00;3.90;;;;;;;28.30;54.18;96747.59;5004522;28;20074;-61
2023/06/25 08:01:45;;;;;;;4.60;4.50;;;;;;;28.38;53.89;96734.50;5021121;28;20064;-59
2023/06/25 08:04:11;;;;;;;4.53;4.43;;;;;;;28.53;53.05;96745.91;5006286;28;20093;-61
2023/06/25 08:06:38;;;;;;;4.47;4.38;;;;;;;28.80;51.37;96743.44;5005893;28;20056;-63
2023/06/25 08:09:05;;;;;;;4.47;4.38;;;;;;;28.73;51.21;96712.50;5005840;28;20143;-61
2023/06/25 08:11:33;;;;;;;4.70;4.60;;;;;;;29.21;50.42;96761.38;5005335;28;20543;-61
2023/06/25 08:14:00;;;;;;;4.80;4.70;;;;;;;29.26;49.81;96734.97;5004149;28;20050;-61
2023/06/25 08:16:28;;;;;;;4.30;4.20;;;;;;;29.06;49.54;96737.78;5004139;28;20053;-60
2023/06/25 08:18:55;;;;;;;3.92;3.83;;;;;;;28.46;51.05;96732.03;5005848;28;20045;-60
2023/06/25 08:21:22;;;;;;;4.10;4.00;;;;;;;28.61;51.02;96679.41;5005477;28;20046;-61
2023/06/25 08:23:49;;;;;;;4.18;4.07;;;;;;;28.84;50.42;96709.00;5019688;28;20046;-61
2023/06/25 08:26:16;;;;;;;4.35;4.25;;;;;;;29.03;50.14;96682.53;5004624;28;20049;-60
2023/06/25 08:28:43;;;;;;;4.63;4.53;;;;;;;29.35;49.74;96727.00;5005133;28;20068;-61
2023/06/25 08:31:10;;;;;;;4.60;4.50;;;;;;;29.47;48.01;96716.50;5005057;28;20049;-60
2023/06/25 08:33:38;;;;;;;4.38;4.28;;;;;;;28.76;47.70;96616.59;5005502;28;20061;-60
2023/06/25 08:36:05;;;;;;;4.90;4.80;;;;;;;29.52;47.45;96727.19;5005091;28;20050;-60
2023/06/25 08:38:32;;;;;;;4.13;4.03;;;;;;;29.39;46.83;96721.06;5003655;28;20049;-62
2023/06/25 08:40:59;;;;;;;4.40;4.30;;;;;;;29.66;47.09;96723.47;5005061;28;20046;-60
2023/06/25 08:43:26;;;;;;;4.20;4.10;;;;;;;29.73;46.58;96723.03;5005208;28;20520;-60
2023/06/25 08:45:53;;;;;;;4.32;4.22;;;;;;;29.91;47.06;96711.22;5004609;28;20449;-61
2023/06/25 08:48:23;;;;;;;4.80;4.70;;;;;;;30.13;47.00;96708.53;5005148;28;20057;-62
2023/06/25 08:50:55;;;;;;;4.53;4.43;;;;;;;30.22;46.87;96702.69;5004763;28;20092;-62
2023/06/25 08:53:27;;;;;;;4.00;3.90;;;;;;;29.88;47.02;96688.59;5005188;28;20145;-61
2023/06/25 08:55:58;;;;;;;4.60;4.50;;;;;;;30.05;48.59;96710.28;5005130;28;20064;-60
2023/06/25 08:58:25;;;;;;;4.40;4.30;;;;;;;29.41;48.64;96675.69;5005242;28;21294;-60
2023/06/25 09:00:52;;;;;;;4.22;4.13;;;;;;;29.24;49.65;96704.06;5003265;28;20480;-61
2023/06/25 09:03:19;;;;;;;4.30;4.20;;;;;;;28.87;50.09;96699.44;5004076;28;20081;-61
2023/06/25 09:05:55;;;;;;;4.32;4.22;;;;;;;28.38;48.51;96557.03;5004983;28;20062;-60
2023/06/25 09:08:24;;;;;;;4.25;4.15;;;;;;;29.33;49.00;96700.25;5004732;28;20084;-60
2023/06/25 09:10:55;;;;;;;4.32;4.22;;;;;;;29.36;49.01;96702.09;5004179;28;20052;-61
2023/06/25 09:13:24;;;;;;;4.45;4.35;;;;;;;29.84;48.63;96703.13;5004847;28;20166;-61
2023/06/25 09:15:53;;;;;;;4.50;4.40;;;;;;;28.55;48.29;96483.97;5004330;28;20104;-60
2023/06/25 09:18:23;;;;;;;4.72;4.63;;;;;;;30.12;47.19;96697.63;5019359;28;20053;-60
2023/06/25 09:20:50;;;;;;;4.47;4.38;;;;;;;29.56;48.97;96639.22;5019245;28;20049;-61
2023/06/25 09:23:23;;;;;;;4.68;4.57;;;;;;;29.55;47.95;96689.06;5004582;28;20205;-61
2023/06/25 09:25:51;;;;;;;4.28;4.18;;;;;;;29.64;47.69;96688.91;5003162;28;20056;-60
2023/06/25 09:28:18;;;;;;;4.60;4.50;;;;;;;30.00;47.47;96635.97;5004277;28;20068;-62
2023/06/25 09:30:46;;;;;;;4.63;4.53;;;;;;;30.23;48.43;96689.94;5002998;28;20242;-61
2023/06/25 09:33:13;;;;;;;4.80;4.70;;;;;;;29.83;48.40;96687.25;5004094;28;20061;-60
2023/06/25 09:35:40;;;;;;;4.30;4.20;;;;;;;29.80;48.88;96688.28;5002625;28;20061;-60
2023/06/25 09:38:07;;;;;;;4.80;4.70;;;;;;;30.22;49.07;96690.44;5004630;28;20068;-59
2023/06/25 09:40:34;;;;;;;4.47;4.38;;;;;;;30.53;47.51;96676.06;5004049;28;20535;-60
2023/06/25 09:43:05;;;;;;;4.63;4.53;;;;;;;30.90;47.06;96683.31;5002612;28;20104;-60
2023/06/25 09:45:34;;;;;;;4.50;4.40;;;;;;;31.28;46.35;96667.56;4984464;28;20276;-60
2023/06/25 09:48:05;;;;;;;4.50;4.40;;;;;;;31.16;45.67;96650.88;4984497;28;20677;-61
2023/06/25 09:50:37;;;;;;;4.53;4.43;;;;;;;31.15;45.39;96652.16;4985286;28;20050;-60
2023/06/25 09:53:21;;;;;;;4.53;4.43;;;;;;;29.91;47.55;96665.50;5002616;28;20050;-61
2023/06/25 09:55:50;;;;;;;4.70;4.60;;;;;;;30.42;48.06;96661.72;5004075;28;20085;-61
2023/06/25 09:58:17;;;;;;;4.10;4.00;;;;;;;30.08;47.58;96669.28;5003856;28;20414;-60
2023/06/25 10:00:44;;;;;;;4.72;4.63;;;;;;;30.53;48.28;96654.00;5003494;28;20054;-61
2023/06/25 10:03:13;;;;;;;4.53;4.43;;;;;;;29.94;48.46;96658.00;5003721;28;20319;-61
2023/06/25 10:05:40;;;;;;;4.70;4.60;;;;;;;30.37;46.86;96639.59;5003847;28;20054;-63
2023/06/25 10:08:08;;;;;;;4.70;4.60;;;;;;;30.22;48.14;96651.22;5003794;28;20116;-61
2023/06/25 10:10:35;;;;;;;4.50;4.40;;;;;;;30.89;46.91;96653.13;5003548;28;20102;-60
2023/06/25 10:13:04;;;;;;;4.80;4.70;;;;;;;30.66;46.64;96653.53;5003457;28;20050;-61
2023/06/25 10:15:33;;;;;;;4.45;4.35;;;;;;;30.89;45.40;96644.56;5003714;28;20066;-61
2023/06/25 10:18:02;;;;;;;4.60;4.50;;;;;;;30.95;46.13;96645.34;5003618;28;20050;-61
2023/06/25 10:20:33;;;;;;;4.55;4.45;;;;;;;31.44;45.83;96646.00;5001728;28;20598;-61
2023/06/25 10:23:07;;;;;;;4.93;4.82;;;;;;;31.83;44.82;96632.47;5003598;28;20133;-61
2023/06/25 10:25:36;;;;;;;4.90;4.80;;;;;;;31.68;43.46;96591.88;5002456;28;20072;-60
2023/06/25 10:28:11;;;;;;;4.18;4.07;;;;;;;32.04;43.16;96622.34;5004107;28;20049;-61
2023/06/25 10:30:41;;;;;;;4.72;4.63;;;;;;;32.10;43.31;96617.38;5003484;28;20437;-61
2023/06/25 10:33:08;;;;;;;4.70;4.60;;;;;;;31.55;44.63;96595.22;5002149;28;20093;-61
2023/06/25 10:35:38;;;;;;;4.80;4.70;;;;;;;31.80;43.54;96570.50;5003561;28;20434;-62
2023/06/25 10:38:05;;;;;;;4.38;4.28;;;;;;;31.45;44.08;96607.47;5003656;28;20129;-62
2023/06/25 10:40:36;;;;;;;4.53;4.43;;;;;;;30.89;44.17;96590.19;5018633;28;20057;-60
2023/06/25 10:43:03;;;;;;;4.18;4.07;;;;;;;30.50;44.73;96551.28;5003826;28;20088;-62
2023/06/25 10:45:31;;;;;;;4.55;4.45;;;;;;;30.90;43.44;96608.91;5002780;28;20057;-60
2023/06/25 10:48:24;;;;;;;4.13;4.03;;;;;;;30.72;44.45;96597.91;5018836;28;20172;-60
2023/06/25 10:50:52;;;;;;;3.95;3.85;;;;;;;30.59;43.81;96583.31;5004450;28;20056;-60
2023/06/25 10:53:23;;;;;;;4.70;4.60;;;;;;;31.29;43.54;96582.44;5004393;28;20074;-59
2023/06/25 10:55:53;;;;;;;4.72;4.63;;;;;;;31.70;41.81;96543.41;5005483;28;20097;-59
2023/06/25 10:58:23;;;;;;;4.47;4.38;;;;;;;32.10;39.99;96588.72;5005865;28;20057;-60
2023/06/25 11:00:56;;;;;;;4.70;4.60;;;;;;;32.21;38.69;96582.94;5005450;28;20061;-60
2023/06/25 11:03:24;;;;;;;4.80;4.70;;;;;;;32.58;39.49;96586.22;5005577;28;20045;-60
2023/06/25 11:05:51;;;;;;;4.80;4.70;;;;;;;33.03;38.27;96581.84;5004923;28;20061;-60
2023/06/25 11:08:18;;;;;;;5.05;4.95;;;;;;;33.44;36.27;96594.13;5005366;28;20612;-61
2023/06/25 11:10:45;;;;;;;4.85;4.75;;;;;;;33.31;36.70;96564.41;5005330;28;20058;-61
2023/06/25 11:13:12;;;;;;;5.35;5.25;;;;;;;33.52;37.44;96575.00;5005963;28;20104;-58
2023/06/25 11:15:40;;;;;;;5.30;5.20;;;;;;;33.16;37.86;96575.50;5006578;28;20057;-62
2023/06/25 11:18:08;;;;;;;5.20;5.10;;;;;;;32.65;39.42;96577.06;5006443;28;20053;-62
2023/06/25 11:20:38;;;;;;;5.13;5.03;;;;;;;32.76;39.59;96562.66;5006386;28;20065;-61
2023/06/25 11:23:05;;;;;;;4.57;4.47;;;;;;;33.26;38.57;96573.88;5006149;28;20262;-61
2023/06/25 11:25:31;;;;;;;5.03;4.93;;;;;;;33.45;38.01;96572.69;5006796;28;20523;-61
2023/06/25 11:28:19;;;;;;;5.05;4.95;;;;;;;33.72;36.86;96568.00;5006618;28;20128;-62
2023/06/25 11:30:46;;;;;;;5.20;5.10;;;;;;;33.77;35.24;96570.06;4997903;28;20444;-60
2023/06/25 11:33:15;;;;;;;4.65;4.55;;;;;;;33.85;35.26;96567.38;5004926;28;20054;-63
2023/06/25 11:35:49;;;;;;;5.13;5.03;;;;;;;33.48;33.36;96511.28;5006185;28;20579;-61
2023/06/25 11:38:27;;;;;;;4.78;4.68;;;;;;;34.06;31.50;96566.41;4934317;28;20114;-61